sensor_id;sensor_type;location;lat;lon;timestamp;P1;durP1;ratioP1;P2;durP2;ratioP2
8564;SDS011;4320;51.498;6.556;2024-02-26T00:01:00;6.28;;;2.50;;
8564;SDS011;4320;51.498;6.556;2024-02-26T00:03:26;3.65;;;2.30;;
8564;SDS011;4320;51.498;6.556;2024-02-26T00:05:52;5.57;;;2.20;;
8564;SDS011;4320;51.498;6.556;2024-02-26T00:08:17;3.88;;;2.58;;
8564;SDS011;4320;51.498;6.556;2024-02-26T00:10:43;3.45;;;2.40;;
8564;SDS011;4320;51.498;6.556;2024-02-26T00:13:08;2.65;;;2.05;;
8564;SDS011;4320;51.498;6.556;2024-02-26T00:15:34;2.78;;;1.92;;
8564;SDS011;4320;51.498;6.556;2024-02-26T00:18:00;3.88;;;2.15;;
8564;SDS011;4320;51.498;6.556;2024-02-26T00:20:26;4.00;;;2.25;;
8564;SDS011;4320;51.498;6.556;2024-02-26T00:22:51;2.50;;;2.05;;
8564;SDS011;4320;51.498;6.556;2024-02-26T00:25:17;2.67;;;2.08;;
8564;SDS011;4320;51.498;6.556;2024-02-26T00:27:43;3.20;;;2.67;;
8564;SDS011;4320;51.498;6.556;2024-02-26T00:30:09;3.58;;;2.08;;
8564;SDS011;4320;51.498;6.556;2024-02-26T00:32:35;2.47;;;2.20;;
8564;SDS011;4320;51.498;6.556;2024-02-26T00:35:01;2.80;;;2.10;;
8564;SDS011;4320;51.498;6.556;2024-02-26T00:37:26;2.78;;;2.08;;
8564;SDS011;4320;51.498;6.556;2024-02-26T00:39:52;3.28;;;2.22;;
8564;SDS011;4320;51.498;6.556;2024-02-26T00:42:19;3.28;;;1.85;;
8564;SDS011;4320;51.498;6.556;2024-02-26T00:44:44;2.10;;;1.90;;
8564;SDS011;4320;51.498;6.556;2024-02-26T00:47:10;3.67;;;2.55;;
8564;SDS011;4320;51.498;6.556;2024-02-26T00:49:36;4.15;;;2.30;;
8564;SDS011;4320;51.498;6.556;2024-02-26T00:52:02;5.53;;;1.95;;
8564;SDS011;4320;51.498;6.556;2024-02-26T00:54:28;3.15;;;2.15;;
8564;SDS011;4320;51.498;6.556;2024-02-26T00:56:54;4.88;;;2.13;;
8564;SDS011;4320;51.498;6.556;2024-02-26T00:59:19;2.35;;;1.95;;
8564;SDS011;4320;51.498;6.556;2024-02-26T01:01:45;2.97;;;2.25;;
8564;SDS011;4320;51.498;6.556;2024-02-26T01:04:10;3.75;;;2.17;;
8564;SDS011;4320;51.498;6.556;2024-02-26T01:06:37;3.72;;;2.00;;
8564;SDS011;4320;51.498;6.556;2024-02-26T01:09:02;2.88;;;1.98;;
8564;SDS011;4320;51.498;6.556;2024-02-26T01:11:28;2.50;;;1.92;;
8564;SDS011;4320;51.498;6.556;2024-02-26T01:13:54;4.20;;;2.47;;
8564;SDS011;4320;51.498;6.556;2024-02-26T01:16:21;3.70;;;2.33;;
8564;SDS011;4320;51.498;6.556;2024-02-26T01:18:48;6.30;;;2.80;;
8564;SDS011;4320;51.498;6.556;2024-02-26T01:21:13;3.78;;;2.45;;
8564;SDS011;4320;51.498;6.556;2024-02-26T01:23:39;5.03;;;2.30;;
8564;SDS011;4320;51.498;6.556;2024-02-26T01:26:05;4.82;;;2.38;;
8564;SDS011;4320;51.498;6.556;2024-02-26T01:28:30;5.38;;;2.60;;
8564;SDS011;4320;51.498;6.556;2024-02-26T01:30:56;4.57;;;2.20;;
8564;SDS011;4320;51.498;6.556;2024-02-26T01:33:23;7.35;;;2.75;;
8564;SDS011;4320;51.498;6.556;2024-02-26T01:35:50;6.88;;;3.20;;
8564;SDS011;4320;51.498;6.556;2024-02-26T01:38:15;6.50;;;2.50;;
8564;SDS011;4320;51.498;6.556;2024-02-26T01:40:41;5.55;;;2.80;;
8564;SDS011;4320;51.498;6.556;2024-02-26T01:43:07;5.07;;;2.38;;
8564;SDS011;4320;51.498;6.556;2024-02-26T01:45:32;6.38;;;3.00;;
8564;SDS011;4320;51.498;6.556;2024-02-26T01:47:58;3.33;;;2.50;;
8564;SDS011;4320;51.498;6.556;2024-02-26T01:50:23;4.97;;;2.92;;
8564;SDS011;4320;51.498;6.556;2024-02-26T01:52:50;4.53;;;2.65;;
8564;SDS011;4320;51.498;6.556;2024-02-26T01:55:17;5.65;;;2.88;;
8564;SDS011;4320;51.498;6.556;2024-02-26T01:57:44;7.45;;;2.80;;
8564;SDS011;4320;51.498;6.556;2024-02-26T02:00:11;5.35;;;3.10;;
8564;SDS011;4320;51.498;6.556;2024-02-26T02:02:39;3.53;;;2.55;;
8564;SDS011;4320;51.498;6.556;2024-02-26T02:05:07;4.20;;;2.70;;
8564;SDS011;4320;51.498;6.556;2024-02-26T02:07:34;3.20;;;2.67;;
8564;SDS011;4320;51.498;6.556;2024-02-26T02:10:01;3.60;;;2.50;;
8564;SDS011;4320;51.498;6.556;2024-02-26T02:12:27;4.05;;;2.50;;
8564;SDS011;4320;51.498;6.556;2024-02-26T02:14:53;5.60;;;2.40;;
8564;SDS011;4320;51.498;6.556;2024-02-26T02:17:19;3.22;;;2.42;;
8564;SDS011;4320;51.498;6.556;2024-02-26T02:19:45;4.00;;;2.50;;
8564;SDS011;4320;51.498;6.556;2024-02-26T02:22:11;2.50;;;2.30;;
8564;SDS011;4320;51.498;6.556;2024-02-26T02:24:36;2.80;;;2.35;;
8564;SDS011;4320;51.498;6.556;2024-02-26T02:27:02;3.55;;;2.25;;
8564;SDS011;4320;51.498;6.556;2024-02-26T02:29:28;2.72;;;2.25;;
8564;SDS011;4320;51.498;6.556;2024-02-26T02:31:54;2.83;;;2.50;;
8564;SDS011;4320;51.498;6.556;2024-02-26T02:34:21;3.08;;;2.42;;
8564;SDS011;4320;51.498;6.556;2024-02-26T02:36:53;3.53;;;2.47;;
8564;SDS011;4320;51.498;6.556;2024-02-26T02:39:20;2.60;;;2.40;;
8564;SDS011;4320;51.498;6.556;2024-02-26T02:41:46;7.03;;;2.67;;
8564;SDS011;4320;51.498;6.556;2024-02-26T02:44:12;2.50;;;2.30;;
8564;SDS011;4320;51.498;6.556;2024-02-26T02:46:38;2.53;;;2.17;;
8564;SDS011;4320;51.498;6.556;2024-02-26T02:49:04;2.20;;;2.00;;
8564;SDS011;4320;51.498;6.556;2024-02-26T02:51:32;4.20;;;2.33;;
8564;SDS011;4320;51.498;6.556;2024-02-26T02:53:58;3.33;;;2.20;;
8564;SDS011;4320;51.498;6.556;2024-02-26T02:56:24;2.75;;;2.22;;
8564;SDS011;4320;51.498;6.556;2024-02-26T02:58:49;2.22;;;1.90;;
8564;SDS011;4320;51.498;6.556;2024-02-26T03:01:15;2.50;;;2.30;;
8564;SDS011;4320;51.498;6.556;2024-02-26T03:03:41;2.60;;;2.15;;
8564;SDS011;4320;51.498;6.556;2024-02-26T03:06:06;4.15;;;2.33;;
8564;SDS011;4320;51.498;6.556;2024-02-26T03:08:32;3.00;;;2.22;;
8564;SDS011;4320;51.498;6.556;2024-02-26T03:11:00;3.55;;;2.25;;
8564;SDS011;4320;51.498;6.556;2024-02-26T03:13:26;3.17;;;2.20;;
8564;SDS011;4320;51.498;6.556;2024-02-26T03:15:51;2.50;;;2.30;;
8564;SDS011;4320;51.498;6.556;2024-02-26T03:18:17;3.17;;;2.38;;
8564;SDS011;4320;51.498;6.556;2024-02-26T03:20:42;2.33;;;2.03;;
8564;SDS011;4320;51.498;6.556;2024-02-26T03:23:08;3.13;;;2.33;;
8564;SDS011;4320;51.498;6.556;2024-02-26T03:25:37;2.92;;;2.47;;
8564;SDS011;4320;51.498;6.556;2024-02-26T03:28:02;2.53;;;2.33;;
8564;SDS011;4320;51.498;6.556;2024-02-26T03:30:28;2.40;;;2.20;;
8564;SDS011;4320;51.498;6.556;2024-02-26T03:32:53;4.07;;;2.20;;
8564;SDS011;4320;51.498;6.556;2024-02-26T03:35:19;2.38;;;2.10;;
8564;SDS011;4320;51.498;6.556;2024-02-26T03:37:45;2.10;;;1.90;;
8564;SDS011;4320;51.498;6.556;2024-02-26T03:40:12;3.42;;;2.40;;
8564;SDS011;4320;51.498;6.556;2024-02-26T03:42:39;2.65;;;2.42;;
8564;SDS011;4320;51.498;6.556;2024-02-26T03:45:05;3.97;;;2.40;;
8564;SDS011;4320;51.498;6.556;2024-02-26T03:47:31;3.50;;;2.40;;
8564;SDS011;4320;51.498;6.556;2024-02-26T03:49:57;3.85;;;2.70;;
8564;SDS011;4320;51.498;6.556;2024-02-26T03:52:24;3.65;;;2.22;;
8564;SDS011;4320;51.498;6.556;2024-02-26T03:54:49;2.55;;;2.35;;
8564;SDS011;4320;51.498;6.556;2024-02-26T03:57:15;2.97;;;2.67;;
8564;SDS011;4320;51.498;6.556;2024-02-26T03:59:41;2.33;;;2.13;;
8564;SDS011;4320;51.498;6.556;2024-02-26T04:02:06;2.97;;;2.67;;
8564;SDS011;4320;51.498;6.556;2024-02-26T04:04:34;3.95;;;2.47;;
8564;SDS011;4320;51.498;6.556;2024-02-26T04:07:00;3.45;;;2.53;;
8564;SDS011;4320;51.498;6.556;2024-02-26T04:09:26;3.10;;;2.38;;
8564;SDS011;4320;51.498;6.556;2024-02-26T04:11:51;3.30;;;2.80;;
8564;SDS011;4320;51.498;6.556;2024-02-26T04:14:17;2.67;;;2.45;;
8564;SDS011;4320;51.498;6.556;2024-02-26T04:16:44;3.03;;;2.60;;
8564;SDS011;4320;51.498;6.556;2024-02-26T04:19:10;3.63;;;2.47;;
8564;SDS011;4320;51.498;6.556;2024-02-26T04:21:36;4.13;;;2.67;;
8564;SDS011;4320;51.498;6.556;2024-02-26T04:24:02;3.70;;;2.58;;
8564;SDS011;4320;51.498;6.556;2024-02-26T04:26:28;2.63;;;2.42;;
8564;SDS011;4320;51.498;6.556;2024-02-26T04:28:55;4.63;;;3.20;;
8564;SDS011;4320;51.498;6.556;2024-02-26T04:31:20;3.03;;;2.65;;
8564;SDS011;4320;51.498;6.556;2024-02-26T04:33:46;3.10;;;2.70;;
8564;SDS011;4320;51.498;6.556;2024-02-26T04:36:13;3.80;;;2.78;;
8564;SDS011;4320;51.498;6.556;2024-02-26T04:38:40;3.00;;;2.60;;
8564;SDS011;4320;51.498;6.556;2024-02-26T04:41:06;2.95;;;2.50;;
8564;SDS011;4320;51.498;6.556;2024-02-26T04:43:31;2.75;;;2.55;;
8564;SDS011;4320;51.498;6.556;2024-02-26T04:45:57;2.53;;;2.33;;
8564;SDS011;4320;51.498;6.556;2024-02-26T04:48:23;4.22;;;2.35;;
8564;SDS011;4320;51.498;6.556;2024-02-26T04:50:48;3.22;;;2.45;;
8564;SDS011;4320;51.498;6.556;2024-02-26T04:53:14;4.15;;;2.50;;
8564;SDS011;4320;51.498;6.556;2024-02-26T04:55:39;3.03;;;2.70;;
8564;SDS011;4320;51.498;6.556;2024-02-26T04:58:05;2.50;;;2.20;;
8564;SDS011;4320;51.498;6.556;2024-02-26T05:00:30;3.10;;;2.28;;
8564;SDS011;4320;51.498;6.556;2024-02-26T05:02:56;3.97;;;2.28;;
8564;SDS011;4320;51.498;6.556;2024-02-26T05:05:21;3.30;;;2.47;;
8564;SDS011;4320;51.498;6.556;2024-02-26T05:07:47;2.88;;;2.22;;
8564;SDS011;4320;51.498;6.556;2024-02-26T05:10:13;2.90;;;2.58;;
8564;SDS011;4320;51.498;6.556;2024-02-26T05:12:38;2.60;;;2.28;;
8564;SDS011;4320;51.498;6.556;2024-02-26T05:15:05;3.20;;;2.65;;
8564;SDS011;4320;51.498;6.556;2024-02-26T05:17:31;2.35;;;2.10;;
8564;SDS011;4320;51.498;6.556;2024-02-26T05:19:57;2.80;;;2.40;;
8564;SDS011;4320;51.498;6.556;2024-02-26T05:22:22;3.60;;;2.53;;
8564;SDS011;4320;51.498;6.556;2024-02-26T05:24:48;2.63;;;2.40;;
8564;SDS011;4320;51.498;6.556;2024-02-26T05:27:15;3.05;;;2.60;;
8564;SDS011;4320;51.498;6.556;2024-02-26T05:29:40;2.80;;;2.47;;
8564;SDS011;4320;51.498;6.556;2024-02-26T05:32:06;3.42;;;2.92;;
8564;SDS011;4320;51.498;6.556;2024-02-26T05:34:31;2.53;;;2.28;;
8564;SDS011;4320;51.498;6.556;2024-02-26T05:36:58;5.35;;;2.85;;
8564;SDS011;4320;51.498;6.556;2024-02-26T05:39:24;3.47;;;2.53;;
8564;SDS011;4320;51.498;6.556;2024-02-26T05:41:49;2.78;;;2.58;;
8564;SDS011;4320;51.498;6.556;2024-02-26T05:44:15;2.85;;;2.53;;
8564;SDS011;4320;51.498;6.556;2024-02-26T05:46:41;2.92;;;2.70;;
8564;SDS011;4320;51.498;6.556;2024-02-26T05:49:07;3.25;;;2.95;;
8564;SDS011;4320;51.498;6.556;2024-02-26T05:51:32;3.15;;;2.63;;
8564;SDS011;4320;51.498;6.556;2024-02-26T05:53:58;4.10;;;2.90;;
8564;SDS011;4320;51.498;6.556;2024-02-26T05:56:24;3.00;;;2.70;;
8564;SDS011;4320;51.498;6.556;2024-02-26T05:58:50;3.17;;;2.88;;
8564;SDS011;4320;51.498;6.556;2024-02-26T06:01:16;3.58;;;3.20;;
8564;SDS011;4320;51.498;6.556;2024-02-26T06:03:42;4.15;;;2.63;;
8564;SDS011;4320;51.498;6.556;2024-02-26T06:06:08;3.58;;;3.03;;
8564;SDS011;4320;51.498;6.556;2024-02-26T06:08:35;3.10;;;2.80;;
8564;SDS011;4320;51.498;6.556;2024-02-26T06:11:04;4.07;;;3.08;;
8564;SDS011;4320;51.498;6.556;2024-02-26T06:13:31;3.42;;;2.90;;
8564;SDS011;4320;51.498;6.556;2024-02-26T06:15:57;3.85;;;3.20;;
8564;SDS011;4320;51.498;6.556;2024-02-26T06:18:23;3.70;;;3.17;;
8564;SDS011;4320;51.498;6.556;2024-02-26T06:20:48;4.38;;;3.10;;
8564;SDS011;4320;51.498;6.556;2024-02-26T06:23:14;3.85;;;3.10;;
8564;SDS011;4320;51.498;6.556;2024-02-26T06:25:39;4.55;;;3.08;;
8564;SDS011;4320;51.498;6.556;2024-02-26T06:28:07;4.05;;;2.92;;
8564;SDS011;4320;51.498;6.556;2024-02-26T06:30:33;4.55;;;3.53;;
8564;SDS011;4320;51.498;6.556;2024-02-26T06:32:59;4.63;;;2.90;;
8564;SDS011;4320;51.498;6.556;2024-02-26T06:35:25;4.43;;;2.50;;
8564;SDS011;4320;51.498;6.556;2024-02-26T06:37:52;5.30;;;2.90;;
8564;SDS011;4320;51.498;6.556;2024-02-26T06:40:18;3.15;;;2.78;;
8564;SDS011;4320;51.498;6.556;2024-02-26T06:42:44;3.78;;;3.03;;
8564;SDS011;4320;51.498;6.556;2024-02-26T06:45:10;3.40;;;3.10;;
8564;SDS011;4320;51.498;6.556;2024-02-26T06:47:36;3.63;;;3.30;;
8564;SDS011;4320;51.498;6.556;2024-02-26T06:50:01;2.95;;;2.70;;
8564;SDS011;4320;51.498;6.556;2024-02-26T06:52:28;4.70;;;3.25;;
8564;SDS011;4320;51.498;6.556;2024-02-26T06:54:53;6.68;;;3.30;;
8564;SDS011;4320;51.498;6.556;2024-02-26T06:57:22;3.60;;;3.13;;
8564;SDS011;4320;51.498;6.556;2024-02-26T06:59:48;3.90;;;3.35;;
8564;SDS011;4320;51.498;6.556;2024-02-26T07:02:14;3.95;;;3.40;;
8564;SDS011;4320;51.498;6.556;2024-02-26T07:04:41;3.50;;;3.20;;
8564;SDS011;4320;51.498;6.556;2024-02-26T07:07:07;3.75;;;3.33;;
8564;SDS011;4320;51.498;6.556;2024-02-26T07:09:33;4.90;;;2.88;;
8564;SDS011;4320;51.498;6.556;2024-02-26T07:11:59;3.92;;;3.20;;
8564;SDS011;4320;51.498;6.556;2024-02-26T07:14:24;3.25;;;2.95;;
8564;SDS011;4320;51.498;6.556;2024-02-26T07:16:50;3.05;;;2.72;;
8564;SDS011;4320;51.498;6.556;2024-02-26T07:19:16;4.38;;;2.95;;
8564;SDS011;4320;51.498;6.556;2024-02-26T07:21:41;5.18;;;3.50;;
8564;SDS011;4320;51.498;6.556;2024-02-26T07:24:08;3.60;;;3.20;;
8564;SDS011;4320;51.498;6.556;2024-02-26T07:26:33;3.33;;;3.03;;
8564;SDS011;4320;51.498;6.556;2024-02-26T07:28:59;3.35;;;2.85;;
8564;SDS011;4320;51.498;6.556;2024-02-26T07:31:25;4.00;;;3.13;;
8564;SDS011;4320;51.498;6.556;2024-02-26T07:33:51;3.03;;;2.83;;
8564;SDS011;4320;51.498;6.556;2024-02-26T07:36:16;3.42;;;2.95;;
8564;SDS011;4320;51.498;6.556;2024-02-26T07:38:42;3.53;;;3.13;;
8564;SDS011;4320;51.498;6.556;2024-02-26T07:41:08;2.90;;;2.70;;
8564;SDS011;4320;51.498;6.556;2024-02-26T07:43:34;3.38;;;2.97;;
8564;SDS011;4320;51.498;6.556;2024-02-26T07:45:59;3.85;;;2.60;;
8564;SDS011;4320;51.498;6.556;2024-02-26T07:48:25;3.97;;;3.00;;
8564;SDS011;4320;51.498;6.556;2024-02-26T07:50:51;4.05;;;3.30;;
8564;SDS011;4320;51.498;6.556;2024-02-26T07:53:16;4.22;;;3.13;;
8564;SDS011;4320;51.498;6.556;2024-02-26T07:55:42;3.35;;;3.05;;
8564;SDS011;4320;51.498;6.556;2024-02-26T07:58:07;4.22;;;2.45;;
8564;SDS011;4320;51.498;6.556;2024-02-26T08:00:33;4.03;;;3.10;;
8564;SDS011;4320;51.498;6.556;2024-02-26T08:02:58;4.03;;;3.47;;
8564;SDS011;4320;51.498;6.556;2024-02-26T08:05:24;3.10;;;2.58;;
8564;SDS011;4320;51.498;6.556;2024-02-26T08:07:52;2.70;;;2.50;;
8564;SDS011;4320;51.498;6.556;2024-02-26T08:10:18;2.80;;;2.50;;
8564;SDS011;4320;51.498;6.556;2024-02-26T08:12:43;2.95;;;2.50;;
8564;SDS011;4320;51.498;6.556;2024-02-26T08:15:10;2.90;;;2.60;;
8564;SDS011;4320;51.498;6.556;2024-02-26T08:17:36;3.35;;;2.53;;
8564;SDS011;4320;51.498;6.556;2024-02-26T08:20:02;2.90;;;2.60;;
8564;SDS011;4320;51.498;6.556;2024-02-26T08:22:28;3.20;;;2.53;;
8564;SDS011;4320;51.498;6.556;2024-02-26T08:24:53;5.30;;;2.85;;
8564;SDS011;4320;51.498;6.556;2024-02-26T08:27:19;2.53;;;2.33;;
8564;SDS011;4320;51.498;6.556;2024-02-26T08:29:45;4.85;;;2.50;;
8564;SDS011;4320;51.498;6.556;2024-02-26T08:32:10;3.67;;;2.53;;
8564;SDS011;4320;51.498;6.556;2024-02-26T08:34:36;3.95;;;2.60;;
8564;SDS011;4320;51.498;6.556;2024-02-26T08:37:02;4.05;;;2.63;;
8564;SDS011;4320;51.498;6.556;2024-02-26T08:39:27;2.72;;;2.50;;
8564;SDS011;4320;51.498;6.556;2024-02-26T08:41:53;3.13;;;2.83;;
8564;SDS011;4320;51.498;6.556;2024-02-26T08:44:19;5.53;;;3.00;;
8564;SDS011;4320;51.498;6.556;2024-02-26T08:46:44;4.68;;;3.88;;
8564;SDS011;4320;51.498;6.556;2024-02-26T08:49:11;5.18;;;3.20;;
8564;SDS011;4320;51.498;6.556;2024-02-26T08:51:41;3.45;;;2.85;;
8564;SDS011;4320;51.498;6.556;2024-02-26T08:54:10;3.25;;;2.85;;
8564;SDS011;4320;51.498;6.556;2024-02-26T08:56:35;5.95;;;3.55;;
8564;SDS011;4320;51.498;6.556;2024-02-26T08:59:01;7.15;;;3.53;;
8564;SDS011;4320;51.498;6.556;2024-02-26T09:01:29;3.08;;;2.78;;
8564;SDS011;4320;51.498;6.556;2024-02-26T09:03:56;5.38;;;4.05;;
8564;SDS011;4320;51.498;6.556;2024-02-26T09:06:21;4.88;;;3.63;;
8564;SDS011;4320;51.498;6.556;2024-02-26T09:08:47;7.68;;;5.10;;
8564;SDS011;4320;51.498;6.556;2024-02-26T09:11:13;4.03;;;3.25;;
8564;SDS011;4320;51.498;6.556;2024-02-26T09:13:38;4.10;;;3.28;;
8564;SDS011;4320;51.498;6.556;2024-02-26T09:16:04;4.85;;;3.38;;
8564;SDS011;4320;51.498;6.556;2024-02-26T09:18:30;5.93;;;3.42;;
8564;SDS011;4320;51.498;6.556;2024-02-26T09:20:56;4.32;;;2.95;;
8564;SDS011;4320;51.498;6.556;2024-02-26T09:23:22;4.78;;;3.67;;
8564;SDS011;4320;51.498;6.556;2024-02-26T09:25:47;4.55;;;2.90;;
8564;SDS011;4320;51.498;6.556;2024-02-26T09:28:13;6.57;;;3.15;;
8564;SDS011;4320;51.498;6.556;2024-02-26T09:30:41;5.32;;;3.17;;
8564;SDS011;4320;51.498;6.556;2024-02-26T09:33:07;3.28;;;2.97;;
8564;SDS011;4320;51.498;6.556;2024-02-26T09:35:33;5.03;;;3.70;;
8564;SDS011;4320;51.498;6.556;2024-02-26T09:37:59;5.70;;;3.25;;
8564;SDS011;4320;51.498;6.556;2024-02-26T09:40:24;3.70;;;3.15;;
8564;SDS011;4320;51.498;6.556;2024-02-26T09:42:50;5.72;;;3.40;;
8564;SDS011;4320;51.498;6.556;2024-02-26T09:45:21;4.05;;;3.20;;
8564;SDS011;4320;51.498;6.556;2024-02-26T09:47:48;6.18;;;3.70;;
8564;SDS011;4320;51.498;6.556;2024-02-26T09:50:14;5.88;;;3.30;;
8564;SDS011;4320;51.498;6.556;2024-02-26T09:52:42;4.70;;;3.47;;
8564;SDS011;4320;51.498;6.556;2024-02-26T09:55:08;3.45;;;2.88;;
8564;SDS011;4320;51.498;6.556;2024-02-26T09:57:37;4.78;;;3.33;;
8564;SDS011;4320;51.498;6.556;2024-02-26T10:00:05;4.38;;;3.17;;
8564;SDS011;4320;51.498;6.556;2024-02-26T10:02:35;2.90;;;2.60;;
8564;SDS011;4320;51.498;6.556;2024-02-26T10:05:03;3.67;;;3.08;;
8564;SDS011;4320;51.498;6.556;2024-02-26T10:07:32;2.90;;;2.70;;
8564;SDS011;4320;51.498;6.556;2024-02-26T10:09:58;3.33;;;3.00;;
8564;SDS011;4320;51.498;6.556;2024-02-26T10:12:24;5.85;;;2.92;;
8564;SDS011;4320;51.498;6.556;2024-02-26T10:14:52;5.55;;;2.92;;
8564;SDS011;4320;51.498;6.556;2024-02-26T10:17:17;3.22;;;2.90;;
8564;SDS011;4320;51.498;6.556;2024-02-26T10:19:45;3.85;;;3.00;;
8564;SDS011;4320;51.498;6.556;2024-02-26T10:22:10;3.95;;;3.55;;
8564;SDS011;4320;51.498;6.556;2024-02-26T10:24:36;5.10;;;3.47;;
8564;SDS011;4320;51.498;6.556;2024-02-26T10:27:02;3.58;;;3.03;;
8564;SDS011;4320;51.498;6.556;2024-02-26T10:29:28;3.95;;;3.15;;
8564;SDS011;4320;51.498;6.556;2024-02-26T10:31:54;4.80;;;3.67;;
8564;SDS011;4320;51.498;6.556;2024-02-26T10:34:20;5.03;;;3.05;;
8564;SDS011;4320;51.498;6.556;2024-02-26T10:36:46;3.47;;;3.03;;
8564;SDS011;4320;51.498;6.556;2024-02-26T10:39:12;4.72;;;3.25;;
8564;SDS011;4320;51.498;6.556;2024-02-26T10:41:39;5.53;;;3.50;;
8564;SDS011;4320;51.498;6.556;2024-02-26T10:44:06;3.50;;;3.20;;
8564;SDS011;4320;51.498;6.556;2024-02-26T10:46:35;4.28;;;3.53;;
8564;SDS011;4320;51.498;6.556;2024-02-26T10:49:02;6.63;;;3.25;;
8564;SDS011;4320;51.498;6.556;2024-02-26T10:51:29;3.70;;;3.33;;
8564;SDS011;4320;51.498;6.556;2024-02-26T10:53:58;4.28;;;3.80;;
8564;SDS011;4320;51.498;6.556;2024-02-26T10:56:29;5.43;;;3.38;;
8564;SDS011;4320;51.498;6.556;2024-02-26T10:58:58;3.55;;;3.05;;
8564;SDS011;4320;51.498;6.556;2024-02-26T11:01:24;6.18;;;3.33;;
8564;SDS011;4320;51.498;6.556;2024-02-26T11:03:52;5.00;;;3.67;;
8564;SDS011;4320;51.498;6.556;2024-02-26T11:06:24;3.70;;;3.17;;
8564;SDS011;4320;51.498;6.556;2024-02-26T11:08:51;4.00;;;3.47;;
8564;SDS011;4320;51.498;6.556;2024-02-26T11:11:18;4.50;;;3.85;;
8564;SDS011;4320;51.498;6.556;2024-02-26T11:13:46;6.50;;;3.47;;
8564;SDS011;4320;51.498;6.556;2024-02-26T11:16:19;4.63;;;3.90;;
8564;SDS011;4320;51.498;6.556;2024-02-26T11:18:46;5.32;;;4.13;;
8564;SDS011;4320;51.498;6.556;2024-02-26T11:21:13;6.57;;;5.22;;
8564;SDS011;4320;51.498;6.556;2024-02-26T11:23:41;6.57;;;5.30;;
8564;SDS011;4320;51.498;6.556;2024-02-26T11:26:07;5.70;;;4.80;;
8564;SDS011;4320;51.498;6.556;2024-02-26T11:28:35;6.35;;;4.85;;
8564;SDS011;4320;51.498;6.556;2024-02-26T11:31:03;7.18;;;4.80;;
8564;SDS011;4320;51.498;6.556;2024-02-26T11:33:30;6.88;;;4.85;;
8564;SDS011;4320;51.498;6.556;2024-02-26T11:35:56;5.45;;;4.65;;
8564;SDS011;4320;51.498;6.556;2024-02-26T11:38:24;6.57;;;4.75;;
8564;SDS011;4320;51.498;6.556;2024-02-26T11:40:52;8.00;;;5.13;;
8564;SDS011;4320;51.498;6.556;2024-02-26T11:43:18;6.32;;;5.20;;
8564;SDS011;4320;51.498;6.556;2024-02-26T11:46:24;5.78;;;5.18;;
8564;SDS011;4320;51.498;6.556;2024-02-26T11:48:58;6.25;;;5.30;;
8564;SDS011;4320;51.498;6.556;2024-02-26T11:51:32;7.47;;;5.55;;
8564;SDS011;4320;51.498;6.556;2024-02-26T11:53:59;9.32;;;5.90;;
8564;SDS011;4320;51.498;6.556;2024-02-26T11:56:25;5.50;;;4.93;;
8564;SDS011;4320;51.498;6.556;2024-02-26T11:59:04;6.80;;;5.47;;
8564;SDS011;4320;51.498;6.556;2024-02-26T12:01:38;7.32;;;5.60;;
8564;SDS011;4320;51.498;6.556;2024-02-26T12:04:04;6.63;;;5.93;;
8564;SDS011;4320;51.498;6.556;2024-02-26T12:06:33;6.95;;;6.10;;
8564;SDS011;4320;51.498;6.556;2024-02-26T12:09:09;7.63;;;5.80;;
8564;SDS011;4320;51.498;6.556;2024-02-26T12:11:38;10.40;;;5.85;;
8564;SDS011;4320;51.498;6.556;2024-02-26T12:14:05;9.02;;;5.88;;
8564;SDS011;4320;51.498;6.556;2024-02-26T12:16:36;7.22;;;6.30;;
8564;SDS011;4320;51.498;6.556;2024-02-26T12:19:08;6.75;;;5.70;;
8564;SDS011;4320;51.498;6.556;2024-02-26T12:21:35;9.57;;;6.70;;
8564;SDS011;4320;51.498;6.556;2024-02-26T12:24:13;8.35;;;6.53;;
8564;SDS011;4320;51.498;6.556;2024-02-26T12:26:43;7.60;;;5.50;;
8564;SDS011;4320;51.498;6.556;2024-02-26T12:29:09;8.70;;;6.10;;
8564;SDS011;4320;51.498;6.556;2024-02-26T12:31:36;6.45;;;5.85;;
8564;SDS011;4320;51.498;6.556;2024-02-26T12:34:02;8.02;;;5.90;;
8564;SDS011;4320;51.498;6.556;2024-02-26T12:36:29;8.98;;;6.22;;
8564;SDS011;4320;51.498;6.556;2024-02-26T12:38:54;7.18;;;6.05;;
8564;SDS011;4320;51.498;6.556;2024-02-26T12:41:21;7.18;;;6.13;;
8564;SDS011;4320;51.498;6.556;2024-02-26T12:43:47;7.72;;;6.25;;
8564;SDS011;4320;51.498;6.556;2024-02-26T12:46:13;9.27;;;6.07;;
8564;SDS011;4320;51.498;6.556;2024-02-26T12:48:42;6.35;;;5.22;;
8564;SDS011;4320;51.498;6.556;2024-02-26T12:51:09;8.25;;;6.00;;
8564;SDS011;4320;51.498;6.556;2024-02-26T12:53:37;7.93;;;5.97;;
8564;SDS011;4320;51.498;6.556;2024-02-26T12:56:03;7.22;;;5.82;;
8564;SDS011;4320;51.498;6.556;2024-02-26T12:58:30;7.45;;;5.95;;
8564;SDS011;4320;51.498;6.556;2024-02-26T13:00:57;7.43;;;5.40;;
8564;SDS011;4320;51.498;6.556;2024-02-26T13:03:23;7.32;;;6.13;;
8564;SDS011;4320;51.498;6.556;2024-02-26T13:05:49;6.57;;;5.80;;
8564;SDS011;4320;51.498;6.556;2024-02-26T13:08:18;6.57;;;5.35;;
8564;SDS011;4320;51.498;6.556;2024-02-26T13:10:45;9.23;;;6.90;;
8564;SDS011;4320;51.498;6.556;2024-02-26T13:13:12;7.50;;;6.45;;
8564;SDS011;4320;51.498;6.556;2024-02-26T13:15:40;8.75;;;5.25;;
8564;SDS011;4320;51.498;6.556;2024-02-26T13:18:09;6.78;;;5.45;;
8564;SDS011;4320;51.498;6.556;2024-02-26T13:20:35;7.10;;;5.93;;
8564;SDS011;4320;51.498;6.556;2024-02-26T13:23:05;8.25;;;5.53;;
8564;SDS011;4320;51.498;6.556;2024-02-26T13:25:32;8.15;;;6.00;;
8564;SDS011;4320;51.498;6.556;2024-02-26T13:28:05;8.43;;;5.93;;
8564;SDS011;4320;51.498;6.556;2024-02-26T13:30:34;6.97;;;5.30;;
8564;SDS011;4320;51.498;6.556;2024-02-26T13:33:07;6.05;;;4.38;;
8564;SDS011;4320;51.498;6.556;2024-02-26T13:35:37;5.07;;;4.30;;
8564;SDS011;4320;51.498;6.556;2024-02-26T13:38:04;5.25;;;4.43;;
8564;SDS011;4320;51.498;6.556;2024-02-26T13:40:31;6.30;;;4.55;;
8564;SDS011;4320;51.498;6.556;2024-02-26T13:42:57;6.22;;;4.82;;
8564;SDS011;4320;51.498;6.556;2024-02-26T13:45:23;4.75;;;4.22;;
8564;SDS011;4320;51.498;6.556;2024-02-26T13:47:48;4.75;;;4.22;;
8564;SDS011;4320;51.498;6.556;2024-02-26T13:50:14;4.35;;;3.95;;
8564;SDS011;4320;51.498;6.556;2024-02-26T13:52:40;4.97;;;3.85;;
8564;SDS011;4320;51.498;6.556;2024-02-26T13:55:05;4.28;;;3.88;;
8564;SDS011;4320;51.498;6.556;2024-02-26T13:57:32;5.85;;;4.18;;
8564;SDS011;4320;51.498;6.556;2024-02-26T13:59:58;7.00;;;4.60;;
8564;SDS011;4320;51.498;6.556;2024-02-26T14:02:23;4.00;;;3.60;;
8564;SDS011;4320;51.498;6.556;2024-02-26T14:04:49;5.30;;;3.90;;
8564;SDS011;4320;51.498;6.556;2024-02-26T14:07:15;4.75;;;3.85;;
8564;SDS011;4320;51.498;6.556;2024-02-26T14:09:42;4.70;;;3.95;;
8564;SDS011;4320;51.498;6.556;2024-02-26T14:12:08;3.90;;;3.55;;
8564;SDS011;4320;51.498;6.556;2024-02-26T14:14:34;4.70;;;3.47;;
8564;SDS011;4320;51.498;6.556;2024-02-26T14:17:03;4.30;;;3.88;;
8564;SDS011;4320;51.498;6.556;2024-02-26T14:19:29;5.25;;;4.00;;
8564;SDS011;4320;51.498;6.556;2024-02-26T14:21:54;4.60;;;4.05;;
8564;SDS011;4320;51.498;6.556;2024-02-26T14:24:20;4.10;;;3.70;;
8564;SDS011;4320;51.498;6.556;2024-02-26T14:26:45;4.80;;;4.22;;
8564;SDS011;4320;51.498;6.556;2024-02-26T14:29:11;5.07;;;4.25;;
8564;SDS011;4320;51.498;6.556;2024-02-26T14:31:37;6.97;;;4.22;;
8564;SDS011;4320;51.498;6.556;2024-02-26T14:34:02;4.60;;;4.10;;
8564;SDS011;4320;51.498;6.556;2024-02-26T14:36:28;5.22;;;4.30;;
8564;SDS011;4320;51.498;6.556;2024-02-26T14:38:54;6.80;;;4.90;;
8564;SDS011;4320;51.498;6.556;2024-02-26T14:41:20;5.18;;;4.40;;
8564;SDS011;4320;51.498;6.556;2024-02-26T14:43:45;7.05;;;4.75;;
8564;SDS011;4320;51.498;6.556;2024-02-26T14:46:11;8.45;;;5.38;;
8564;SDS011;4320;51.498;6.556;2024-02-26T14:48:36;6.07;;;4.78;;
8564;SDS011;4320;51.498;6.556;2024-02-26T14:51:02;6.78;;;5.50;;
8564;SDS011;4320;51.498;6.556;2024-02-26T14:53:31;6.97;;;4.75;;
8564;SDS011;4320;51.498;6.556;2024-02-26T14:55:57;5.90;;;4.97;;
8564;SDS011;4320;51.498;6.556;2024-02-26T14:58:23;6.78;;;5.72;;
8564;SDS011;4320;51.498;6.556;2024-02-26T15:00:48;6.45;;;5.43;;
8564;SDS011;4320;51.498;6.556;2024-02-26T15:03:14;7.75;;;6.38;;
8564;SDS011;4320;51.498;6.556;2024-02-26T15:05:40;7.85;;;6.00;;
8564;SDS011;4320;51.498;6.556;2024-02-26T15:08:05;8.13;;;5.65;;
8564;SDS011;4320;51.498;6.556;2024-02-26T15:10:34;8.95;;;6.32;;